ENGLEBRIGHT (USACE) (ENG)

Elevation: 551' · YUBA R basin · Operator: US Army Corps of Engineers

Provisional data, subject to change.
Query executed Wednesday at 12:50:43   clock

Select a sensor type for a plot of data.
Note: Reservoir Flows are daily averages.

Earlier

Date RES ELE    STORAGE    RES CHG    OUTFLOW    INFLOW    PPT INC   
 FEET   AF   AF   CFS   CFS   INCHES  
04/28/2015 524.18 67692 483 -- 1277 0.00
04/29/2015 524.36 67835 -- -- 1122 0.00
04/30/2015 524.53 67971 136 -- 1165 0.00
05/01/2015 524.39 67859 -112 -- 1065 0.00
05/02/2015 523.00 66759 -- -- 571 0.00
05/03/2015 521.68 65728 -- -- 590 0.00
05/04/2015 520.58 64878 -850 -- 679 0.00
05/05/2015 519.86 64326 -- -- 800 0.00
05/06/2015 520.26 64632 306 -- 1204 0.00
05/07/2015 520.90 65124 492 -- 1270 0.00
05/08/2015 521.15 65317 193 -- 1125 0.00
05/09/2015 520.58 64878 -439 -- 792 0.00
05/10/2015 520.29 64655 -223 -- 884 0.00
05/11/2015 520.92 65139 484 -- 1242 0.00
05/12/2015 521.51 65596 457 -- 1230 0.00
05/13/2015 522.16 66101 505 -- 1264 0.00
05/14/2015 522.77 66579 478 -- 1254 0.15
05/15/2015 523.16 66885 306 -- 1136 0.00
05/16/2015 522.79 66594 -291 -- 91 0.00
05/17/2015 522.55 66406 -188 -- 746 0.00
05/18/2015 522.46 66336 -70 -- 794 0.00
05/19/2015 522.42 66305 -31 -- 802 0.00
05/20/2015 522.59 66438 133 -- 891 0.00
05/21/2015 523.05 66799 361 -- 1052 0.00
05/22/2015 522.00 65977 -822 -- 453 0.00
05/23/2015 522.13 66078 101 -- 909 0.00
05/24/2015 521.97 65953 -125 -- 789 0.00
05/25/2015 521.21 65363 -590 -- -297 0.00
05/26/2015 520.92 65139 -224 -- 750 0.00
05/27/2015 -- -- -- -- -- --

Later | Latest

Warning! This data is preliminary and subject to revision.

Show ENG Map | Plot ENG Data | 1 Month ENG Data | Real-Time ENG Data | ENG Info